createdAt,value
2022-09-03T00:00:03.343Z,99.90
2022-09-03T00:02:39.803Z,99.90
2022-09-03T00:05:12.108Z,99.90
2022-09-03T00:07:44.098Z,99.90
2022-09-03T00:10:16.427Z,99.90
2022-09-03T00:12:46.133Z,99.90
2022-09-03T00:15:16.364Z,99.90
2022-09-03T00:17:47.284Z,99.90
2022-09-03T00:20:19.064Z,99.90
2022-09-03T00:22:49.443Z,99.90
2022-09-03T00:25:22.282Z,99.90
2022-09-03T00:27:55.580Z,99.90
2022-09-03T00:30:25.038Z,99.90
2022-09-03T00:32:56.171Z,99.90
2022-09-03T00:35:44.849Z,99.90
2022-09-03T00:38:14.051Z,99.90
2022-09-03T00:40:57.458Z,99.90
2022-09-03T00:43:35.401Z,99.90
2022-09-03T00:46:09.288Z,99.90
2022-09-03T00:48:45.263Z,99.90
2022-09-03T00:51:17.741Z,99.90
2022-09-03T00:53:51.626Z,99.90
2022-09-03T00:56:25.091Z,99.90
2022-09-03T00:59:02.007Z,99.90
2022-09-03T01:01:36.661Z,99.90
2022-09-03T01:04:09.773Z,99.90
2022-09-03T01:06:42.970Z,99.90
2022-09-03T01:09:20.522Z,99.90
2022-09-03T01:11:59.881Z,99.90
2022-09-03T01:14:35.919Z,99.90
2022-09-03T01:17:26.508Z,99.90
2022-09-03T01:20:16.173Z,99.90
2022-09-03T01:23:03.324Z,99.90
2022-09-03T01:25:39.242Z,99.90
2022-09-03T01:28:19.487Z,99.90
2022-09-03T01:30:51.133Z,99.90
2022-09-03T01:33:22.328Z,99.90
2022-09-03T01:35:54.458Z,99.90
2022-09-03T01:38:27.447Z,99.90
2022-09-03T01:41:26.034Z,99.90
2022-09-03T01:44:01.921Z,99.90
2022-09-03T01:46:34.105Z,99.90
2022-09-03T01:49:07.215Z,99.90
2022-09-03T01:51:35.866Z,99.90
2022-09-03T01:54:20.987Z,99.90
2022-09-03T01:56:59.526Z,99.90
2022-09-03T01:59:31.355Z,99.90
2022-09-03T02:02:03.955Z,99.90
2022-09-03T02:04:32.627Z,99.90
2022-09-03T02:07:02.226Z,99.90
2022-09-03T02:09:32.899Z,99.90
2022-09-03T02:12:05.405Z,99.90
2022-09-03T02:14:35.883Z,99.90
2022-09-03T02:17:05.259Z,99.90
2022-09-03T02:19:34.740Z,99.90
2022-09-03T02:22:03.416Z,99.90
2022-09-03T02:24:31.862Z,99.90
2022-09-03T02:27:00.928Z,99.90
2022-09-03T02:29:29.553Z,99.90
2022-09-03T02:31:59.733Z,99.90
2022-09-03T02:34:28.569Z,99.90
2022-09-03T02:36:57.106Z,99.90
2022-09-03T02:39:25.723Z,99.90
2022-09-03T02:41:56.402Z,99.90
2022-09-03T02:44:28.426Z,99.90
2022-09-03T02:46:59.283Z,99.90
2022-09-03T02:49:29.602Z,99.90
2022-09-03T02:52:01.082Z,99.90
2022-09-03T02:54:29.678Z,99.90
2022-09-03T02:56:58.211Z,99.90
2022-09-03T02:59:28.516Z,99.90
2022-09-03T03:01:57.328Z,99.90
2022-09-03T03:04:31.833Z,99.90
2022-09-03T03:07:00.443Z,99.90
2022-09-03T03:09:29.178Z,99.90
2022-09-03T03:11:57.906Z,99.90
2022-09-03T03:14:26.480Z,99.90
2022-09-03T03:16:55.162Z,99.90
2022-09-03T03:19:23.872Z,99.90
2022-09-03T03:21:53.942Z,99.90
2022-09-03T03:24:22.554Z,99.90
2022-09-03T03:26:51.072Z,99.90
2022-09-03T03:29:38.218Z,99.90
2022-09-03T03:32:07.045Z,99.90
2022-09-03T03:34:35.577Z,99.90
2022-09-03T03:37:06.175Z,99.90
2022-09-03T03:39:34.887Z,99.90
2022-09-03T03:42:03.448Z,99.90
2022-09-03T03:44:31.996Z,99.90
2022-09-03T03:47:00.580Z,99.90
2022-09-03T03:49:29.135Z,99.90
2022-09-03T03:51:57.759Z,99.90
2022-09-03T03:54:27.763Z,99.90
2022-09-03T03:56:56.463Z,99.90
2022-09-03T03:59:25.099Z,99.90
2022-09-03T04:01:55.748Z,99.90
2022-09-03T04:04:24.508Z,99.90
2022-09-03T04:06:53.142Z,99.90
2022-09-03T04:09:21.851Z,99.90
2022-09-03T04:11:51.976Z,99.90
2022-09-03T04:14:20.591Z,99.90
2022-09-03T04:16:49.195Z,99.90
2022-09-03T04:19:18.148Z,99.90
2022-09-03T04:21:46.708Z,99.90
2022-09-03T04:24:15.320Z,99.90
2022-09-03T04:26:43.891Z,99.90
2022-09-03T04:29:14.006Z,99.90
2022-09-03T04:32:03.537Z,99.90
2022-09-03T04:34:32.217Z,99.90
2022-09-03T04:37:00.790Z,99.90
2022-09-03T04:39:29.403Z,99.90
2022-09-03T04:41:59.995Z,99.90
2022-09-03T04:44:30.346Z,99.90
2022-09-03T04:46:59.017Z,99.90
2022-09-03T04:49:27.606Z,99.90
2022-09-03T04:51:56.169Z,99.90
2022-09-03T04:54:24.746Z,99.90
2022-09-03T04:56:58.738Z,99.90
2022-09-03T04:59:27.233Z,99.90
2022-09-03T05:01:57.508Z,99.90
2022-09-03T05:04:26.131Z,99.90
2022-09-03T05:06:54.792Z,99.90
2022-09-03T05:09:23.463Z,99.90
2022-09-03T05:11:52.059Z,99.90
2022-09-03T05:14:20.801Z,99.90
2022-09-03T05:16:52.575Z,99.90
2022-09-03T05:19:23.294Z,99.90
2022-09-03T05:21:52.000Z,99.90
2022-09-03T05:24:20.764Z,99.90
2022-09-03T05:26:49.349Z,99.90
2022-09-03T05:29:21.456Z,99.90
2022-09-03T05:31:50.439Z,99.90
2022-09-03T05:34:19.086Z,99.90
2022-09-03T05:36:50.079Z,99.90
2022-09-03T05:39:18.956Z,99.90
2022-09-03T05:41:48.899Z,99.90
2022-09-03T05:44:21.825Z,99.90
2022-09-03T05:46:51.856Z,99.90
2022-09-03T05:49:20.431Z,99.90
2022-09-03T05:51:50.548Z,99.90
2022-09-03T05:54:19.173Z,99.90
2022-09-03T05:56:47.786Z,99.90
2022-09-03T05:59:16.468Z,99.90
2022-09-03T06:01:51.098Z,99.90
2022-09-03T06:04:21.802Z,99.90
2022-09-03T06:06:51.941Z,99.90
2022-09-03T06:09:21.274Z,99.90
2022-09-03T06:11:52.385Z,99.90
2022-09-03T06:14:26.353Z,99.90
2022-09-03T06:16:57.173Z,99.90
2022-09-03T06:19:26.236Z,99.90
2022-09-03T06:21:56.336Z,99.90
2022-09-03T06:24:28.346Z,99.90
2022-09-03T06:26:57.838Z,99.90
2022-09-03T06:29:27.165Z,99.90
2022-09-03T06:31:57.623Z,99.90
2022-09-03T06:34:27.108Z,99.90
2022-09-03T06:37:15.601Z,99.90
2022-09-03T06:39:44.293Z,99.90
2022-09-03T06:42:13.562Z,99.90
2022-09-03T06:45:01.685Z,99.90
2022-09-03T06:47:30.282Z,99.90
2022-09-03T06:49:59.367Z,99.90
2022-09-03T06:52:30.445Z,99.90
2022-09-03T06:54:59.216Z,99.90
2022-09-03T06:57:27.763Z,99.90
2022-09-03T06:59:56.618Z,99.90
2022-09-03T07:02:25.208Z,99.90
2022-09-03T07:04:53.883Z,99.90
2022-09-03T07:07:22.937Z,99.90
2022-09-03T07:09:53.369Z,99.90
2022-09-03T07:12:21.934Z,99.90
2022-09-03T07:14:51.237Z,99.90
2022-09-03T07:17:19.909Z,99.90
2022-09-03T07:19:48.514Z,99.90
2022-09-03T07:22:17.118Z,99.90
2022-09-03T07:24:47.807Z,99.90
2022-09-03T07:27:17.909Z,99.90
2022-09-03T07:29:46.613Z,99.90
2022-09-03T07:32:15.378Z,99.90
2022-09-03T07:34:44.124Z,99.90
2022-09-03T07:37:12.826Z,99.90
2022-09-03T07:39:42.063Z,99.90
2022-09-03T07:42:11.305Z,99.90
2022-09-03T07:44:45.532Z,99.90
2022-09-03T07:47:23.270Z,99.70
2022-09-03T07:49:55.720Z,99.40
2022-09-03T07:52:24.416Z,98.90
2022-09-03T07:54:53.098Z,98.60
2022-09-03T07:57:21.875Z,98.50
2022-09-03T07:59:54.983Z,98.00
2022-09-03T08:02:46.146Z,97.80
2022-09-03T08:05:15.281Z,97.50
2022-09-03T08:07:43.886Z,97.10
2022-09-03T08:10:13.776Z,96.90
2022-09-03T08:12:42.364Z,96.90
2022-09-03T08:15:12.626Z,96.70
2022-09-03T08:17:45.129Z,96.40
2022-09-03T08:20:32.616Z,96.10
2022-09-03T08:23:04.617Z,95.50
2022-09-03T08:25:59.207Z,94.90
2022-09-03T08:28:27.863Z,94.50
2022-09-03T08:30:57.920Z,94.20
2022-09-03T08:33:38.761Z,93.90
2022-09-03T08:36:08.580Z,93.60
2022-09-03T08:38:38.501Z,93.10
2022-09-03T08:41:08.797Z,92.90
2022-09-03T08:43:43.363Z,92.80
2022-09-03T08:46:13.939Z,92.80
2022-09-03T08:48:43.111Z,92.70
2022-09-03T08:51:14.272Z,92.50
2022-09-03T08:53:57.948Z,92.00
2022-09-03T08:56:28.334Z,91.70
2022-09-03T08:58:57.261Z,91.50
2022-09-03T09:01:38.057Z,91.20
2022-09-03T09:04:32.802Z,90.40
2022-09-03T09:07:07.066Z,89.00
2022-09-03T09:09:38.837Z,86.70
2022-09-03T09:12:16.022Z,85.40
2022-09-03T09:14:50.020Z,84.10
2022-09-03T09:17:32.925Z,84.20
2022-09-03T09:20:22.881Z,82.60
2022-09-03T09:22:53.813Z,81.70
2022-09-03T09:25:47.213Z,81.60
2022-09-03T09:28:18.680Z,81.00
2022-09-03T09:30:49.008Z,80.60
2022-09-03T09:33:20.725Z,80.00
2022-09-03T09:35:49.836Z,79.30
2022-09-03T09:38:28.665Z,78.70
2022-09-03T09:40:58.619Z,78.60
2022-09-03T09:43:27.344Z,78.10
2022-09-03T09:45:56.065Z,77.50
2022-09-03T09:48:49.660Z,76.70
2022-09-03T09:51:21.360Z,76.20
2022-09-03T09:53:50.447Z,75.90
2022-09-03T09:56:22.979Z,75.40
2022-09-03T09:59:11.184Z,74.90
2022-09-03T10:01:40.863Z,74.50
2022-09-03T10:04:15.452Z,74.10
2022-09-03T10:06:57.315Z,74.00
2022-09-03T10:09:31.067Z,73.90
2022-09-03T10:12:06.521Z,74.30
2022-09-03T10:14:37.725Z,74.30
2022-09-03T10:17:12.046Z,74.70
2022-09-03T10:20:07.709Z,75.50
2022-09-03T10:22:52.488Z,75.60
2022-09-03T10:25:28.512Z,76.00
2022-09-03T10:27:57.192Z,75.60
2022-09-03T10:30:29.768Z,75.10
2022-09-03T10:33:02.991Z,74.20
2022-09-03T10:35:33.938Z,73.70
2022-09-03T10:38:08.031Z,73.30
2022-09-03T10:40:39.537Z,72.50
2022-09-03T10:43:16.085Z,71.70
2022-09-03T10:45:49.470Z,71.80
2022-09-03T10:48:25.883Z,71.20
2022-09-03T10:50:58.394Z,69.90
2022-09-03T10:54:07.894Z,69.10
2022-09-03T10:56:44.832Z,67.50
2022-09-03T10:59:40.546Z,66.00
2022-09-03T11:02:19.127Z,65.00
2022-09-03T11:05:08.220Z,64.90
2022-09-03T11:07:39.261Z,65.60
2022-09-03T11:10:31.051Z,65.70
2022-09-03T11:13:04.701Z,65.20
2022-09-03T11:15:36.075Z,64.60
2022-09-03T11:18:06.025Z,63.10
2022-09-03T11:20:35.338Z,62.20
2022-09-03T11:23:08.511Z,61.10
2022-09-03T11:25:42.821Z,60.00
2022-09-03T11:28:19.532Z,59.30
2022-09-03T11:30:54.818Z,59.00
2022-09-03T11:33:24.841Z,58.60
2022-09-03T11:35:58.469Z,57.80
2022-09-03T11:38:31.522Z,58.00
2022-09-03T11:41:26.361Z,58.20
2022-09-03T11:43:55.643Z,57.60
2022-09-03T11:46:32.022Z,57.00
2022-09-03T11:49:12.285Z,57.00
2022-09-03T11:51:42.184Z,56.80
2022-09-03T11:54:26.276Z,56.20
2022-09-03T11:57:10.573Z,56.00
2022-09-03T11:59:39.514Z,55.40
2022-09-03T12:02:14.715Z,55.00
2022-09-03T12:04:47.199Z,54.50
2022-09-03T12:07:23.171Z,54.70
2022-09-03T12:10:00.912Z,54.40
2022-09-03T12:12:37.407Z,54.50
2022-09-03T12:15:33.573Z,54.20
2022-09-03T12:18:23.322Z,54.10
2022-09-03T12:21:02.271Z,54.50
2022-09-03T12:23:31.814Z,54.80
2022-09-03T12:26:01.500Z,54.70
2022-09-03T12:28:36.491Z,54.90
2022-09-03T12:31:21.550Z,55.30
2022-09-03T12:34:11.278Z,56.00
2022-09-03T12:36:41.157Z,56.60
2022-09-03T12:39:12.786Z,56.70
2022-09-03T12:42:03.920Z,57.10
2022-09-03T12:44:39.684Z,57.20
2022-09-03T12:50:07.415Z,57.00
2022-09-03T12:52:37.970Z,57.30
2022-09-03T12:55:09.540Z,57.10
2022-09-03T12:57:41.363Z,57.30
2022-09-03T13:00:15.277Z,57.30
2022-09-03T13:03:04.271Z,57.40
2022-09-03T13:05:34.686Z,57.40
2022-09-03T13:08:05.819Z,57.40
2022-09-03T13:10:37.132Z,57.10
2022-09-03T13:13:17.643Z,56.80
2022-09-03T13:15:58.280Z,55.90
2022-09-03T13:18:29.415Z,55.30
2022-09-03T13:21:05.272Z,54.80
2022-09-03T13:23:43.655Z,54.60
2022-09-03T13:26:19.842Z,54.80
2022-09-03T13:29:25.659Z,54.60
2022-09-03T13:32:05.352Z,54.70
2022-09-03T13:34:36.683Z,54.30
2022-09-03T13:37:13.274Z,55.20
2022-09-03T13:39:43.474Z,54.90
2022-09-03T13:42:15.271Z,55.60
2022-09-03T13:44:48.629Z,55.90
2022-09-03T13:47:26.427Z,56.20
2022-09-03T13:50:16.775Z,56.60
2022-09-03T13:52:49.186Z,57.50
2022-09-03T13:55:39.329Z,57.70
2022-09-03T13:58:11.309Z,58.50
2022-09-03T14:00:42.547Z,59.30
2022-09-03T14:03:16.745Z,59.80
2022-09-03T14:05:52.326Z,60.30
2022-09-03T14:08:25.321Z,61.20
2022-09-03T14:10:57.354Z,61.80
2022-09-03T14:13:32.434Z,62.40
2022-09-03T14:16:11.796Z,62.80
2022-09-03T14:18:45.528Z,63.30
2022-09-03T14:21:18.618Z,64.10
2022-09-03T14:23:50.624Z,64.50
2022-09-03T14:26:31.099Z,64.70
2022-09-03T14:29:09.370Z,65.20
2022-09-03T14:31:52.741Z,65.60
2022-09-03T14:34:31.255Z,66.20
2022-09-03T14:37:03.180Z,66.50
2022-09-03T14:39:34.483Z,67.30
2022-09-03T14:42:21.003Z,67.70
2022-09-03T14:45:03.843Z,68.00
2022-09-03T14:47:41.906Z,68.60
2022-09-03T14:50:18.354Z,68.90
2022-09-03T14:52:56.144Z,69.00
2022-09-03T14:55:30.613Z,68.90
2022-09-03T14:58:06.965Z,69.00
2022-09-03T15:00:39.424Z,69.10
2022-09-03T15:03:35.553Z,69.30
2022-09-03T15:06:08.750Z,69.70
2022-09-03T15:08:53.918Z,70.20
2022-09-03T15:11:24.961Z,70.60
2022-09-03T15:13:55.643Z,71.10
2022-09-03T15:16:37.853Z,71.50
2022-09-03T15:19:12.149Z,71.90
2022-09-03T15:21:54.770Z,72.40
2022-09-03T15:24:28.314Z,72.80
2022-09-03T15:27:07.213Z,73.10
2022-09-03T15:29:45.209Z,73.40
2022-09-03T15:32:19.482Z,73.60
2022-09-03T15:34:52.486Z,74.00
2022-09-03T15:37:25.314Z,74.40
2022-09-03T15:40:01.468Z,74.90
2022-09-03T15:42:31.542Z,75.30
2022-09-03T15:45:04.373Z,75.70
2022-09-03T15:47:51.583Z,75.80
2022-09-03T15:50:27.532Z,76.20
2022-09-03T15:52:59.902Z,76.60
2022-09-03T15:55:33.180Z,76.80
2022-09-03T15:58:08.555Z,77.20
2022-09-03T16:00:45.355Z,77.50
2022-09-03T16:03:21.716Z,77.90
2022-09-03T16:05:56.176Z,78.20
2022-09-03T16:08:31.093Z,78.50
2022-09-03T16:11:23.439Z,78.90
2022-09-03T16:13:57.075Z,79.30
2022-09-03T16:16:50.811Z,79.60
2022-09-03T16:19:22.745Z,79.90
2022-09-03T16:21:56.658Z,80.30
2022-09-03T16:24:30.310Z,80.70
2022-09-03T16:27:01.331Z,81.30
2022-09-03T16:29:31.226Z,81.90
2022-09-03T16:32:07.395Z,82.10
2022-09-03T16:34:41.747Z,82.50
2022-09-03T16:37:15.663Z,82.40
2022-09-03T16:39:52.184Z,82.10
2022-09-03T16:42:27.666Z,81.60
2022-09-03T16:45:05.734Z,81.60
2022-09-03T16:47:41.453Z,81.50
2022-09-03T16:50:15.749Z,81.70
2022-09-03T16:52:54.061Z,81.50
2022-09-03T16:55:26.230Z,81.80
2022-09-03T16:58:08.191Z,81.40
2022-09-03T17:00:52.092Z,81.30
2022-09-03T17:03:33.255Z,81.20
2022-09-03T17:06:22.341Z,81.10
2022-09-03T17:08:56.243Z,81.00
2022-09-03T17:11:37.247Z,80.80
2022-09-03T17:14:14.418Z,80.80
2022-09-03T17:16:46.036Z,80.70
2022-09-03T17:19:20.815Z,80.60
2022-09-03T17:21:51.793Z,80.60
2022-09-03T17:24:40.131Z,80.80
2022-09-03T17:27:17.027Z,81.00
2022-09-03T17:29:53.616Z,81.30
2022-09-03T17:32:28.538Z,81.30
2022-09-03T17:35:02.346Z,81.40
2022-09-03T17:37:35.539Z,81.70
2022-09-03T17:40:09.337Z,82.10
2022-09-03T17:42:45.601Z,82.30
2022-09-03T17:45:16.707Z,82.70
2022-09-03T17:47:56.575Z,83.10
2022-09-03T17:50:26.430Z,83.50
2022-09-03T17:52:57.223Z,83.90
2022-09-03T17:55:29.053Z,84.00
2022-09-03T17:58:02.890Z,84.30
2022-09-03T18:00:35.602Z,84.60
2022-09-03T18:03:08.540Z,84.70
2022-09-03T18:05:45.343Z,84.80
2022-09-03T18:08:16.212Z,85.30
2022-09-03T18:10:46.636Z,85.40
2022-09-03T18:13:23.637Z,86.00
2022-09-03T18:15:55.844Z,86.50
2022-09-03T18:18:28.094Z,87.00
2022-09-03T18:21:24.397Z,87.40
2022-09-03T18:24:15.838Z,88.10
2022-09-03T18:27:03.210Z,88.70
2022-09-03T18:30:00.715Z,89.20
2022-09-03T18:32:48.759Z,89.80
2022-09-03T18:35:35.120Z,90.10
2022-09-03T18:38:21.629Z,90.40
2022-09-03T18:41:11.622Z,90.70
2022-09-03T18:44:03.390Z,91.00
2022-09-03T18:50:07.773Z,91.50
2022-09-03T18:53:00.287Z,91.80
2022-09-03T18:55:52.298Z,91.90
2022-09-03T18:58:44.813Z,92.00
2022-09-03T19:01:40.867Z,92.10
2022-09-03T19:04:36.400Z,92.20
2022-09-03T19:07:26.649Z,92.40
2022-09-03T19:10:17.697Z,92.30
2022-09-03T19:13:12.970Z,92.40
2022-09-03T19:16:04.996Z,92.50
2022-09-03T19:19:02.584Z,92.50
2022-09-03T19:21:55.493Z,92.70
2022-09-03T19:24:47.541Z,92.70
2022-09-03T19:27:55.308Z,92.80
2022-09-03T19:30:50.369Z,92.90
2022-09-03T19:33:42.551Z,93.00
2022-09-03T19:36:34.496Z,93.10
2022-09-03T19:39:27.294Z,93.30
2022-09-03T19:42:20.977Z,93.50
2022-09-03T19:45:15.477Z,93.50
2022-09-03T19:48:07.296Z,93.60
2022-09-03T19:50:56.428Z,93.70
2022-09-03T19:53:43.658Z,93.90
2022-09-03T19:56:35.525Z,94.10
2022-09-03T19:59:26.324Z,94.20
2022-09-03T20:02:30.760Z,94.10
2022-09-03T20:05:18.153Z,94.20
2022-09-03T20:08:26.938Z,94.30
2022-09-03T20:10:58.804Z,94.30
2022-09-03T20:13:49.218Z,94.20
2022-09-03T20:16:31.958Z,94.00
2022-09-03T20:19:05.267Z,93.80
2022-09-03T20:21:37.035Z,93.60
2022-09-03T20:24:14.353Z,93.70
2022-09-03T20:26:49.959Z,93.60
2022-09-03T20:29:30.063Z,93.60
2022-09-03T20:32:01.069Z,93.40
2022-09-03T20:34:37.272Z,93.50
2022-09-03T20:37:13.139Z,93.50
2022-09-03T20:40:06.703Z,93.50
2022-09-03T20:42:50.772Z,93.50
2022-09-03T20:45:24.269Z,93.50
2022-09-03T20:48:04.243Z,93.50
2022-09-03T20:50:44.001Z,93.60
2022-09-03T20:53:18.447Z,93.60
2022-09-03T20:55:50.050Z,93.70
2022-09-03T20:58:22.975Z,93.70
2022-09-03T21:00:58.182Z,93.80
2022-09-03T21:03:30.470Z,93.90
2022-09-03T21:06:08.746Z,94.00
2022-09-03T21:08:51.039Z,94.10
2022-09-03T21:11:29.266Z,94.10
2022-09-03T21:14:00.756Z,94.20
2022-09-03T21:16:54.515Z,94.30
2022-09-03T21:19:39.057Z,94.40
2022-09-03T21:22:12.795Z,94.50
2022-09-03T21:24:46.469Z,94.60
2022-09-03T21:27:17.076Z,94.60
2022-09-03T21:29:48.291Z,94.70
2022-09-03T21:32:19.976Z,94.70
2022-09-03T21:34:52.044Z,94.80
2022-09-03T21:37:21.716Z,94.90
2022-09-03T21:39:52.029Z,94.80
2022-09-03T21:42:25.696Z,95.00
2022-09-03T21:45:15.758Z,95.10
2022-09-03T21:47:49.642Z,95.20
2022-09-03T21:50:19.295Z,95.30
2022-09-03T21:52:50.456Z,95.40
2022-09-03T21:55:23.143Z,95.60
2022-09-03T21:58:01.634Z,95.80
2022-09-03T22:00:32.747Z,95.90
2022-09-03T22:03:02.796Z,96.10
2022-09-03T22:05:34.603Z,96.10
2022-09-03T22:08:10.213Z,96.20
2022-09-03T22:10:42.440Z,96.30
2022-09-03T22:13:16.300Z,96.40
2022-09-03T22:15:48.436Z,96.40
2022-09-03T22:18:24.204Z,96.40
2022-09-03T22:21:02.310Z,96.40
2022-09-03T22:23:43.779Z,96.30
2022-09-03T22:26:34.406Z,96.30
2022-09-03T22:29:07.017Z,96.40
2022-09-03T22:31:41.217Z,96.40
2022-09-03T22:34:17.547Z,96.50
2022-09-03T22:37:06.802Z,96.70
2022-09-03T22:39:37.616Z,96.60
2022-09-03T22:42:14.498Z,96.70
2022-09-03T22:45:02.118Z,96.70
2022-09-03T22:47:37.641Z,96.70
2022-09-03T22:50:15.294Z,96.80
2022-09-03T22:52:46.490Z,96.80
2022-09-03T22:55:16.782Z,96.80
2022-09-03T22:58:04.923Z,96.90
2022-09-03T23:00:45.092Z,96.90
2022-09-03T23:03:17.728Z,96.90
2022-09-03T23:05:51.808Z,96.90
2022-09-03T23:08:25.792Z,96.90
2022-09-03T23:10:59.764Z,96.90
2022-09-03T23:13:33.182Z,96.80
2022-09-03T23:16:05.905Z,96.80
2022-09-03T23:18:35.424Z,96.80
2022-09-03T23:21:07.974Z,96.80
2022-09-03T23:23:38.437Z,96.80
2022-09-03T23:26:13.618Z,96.80
2022-09-03T23:28:44.395Z,96.90
2022-09-03T23:31:21.228Z,97.00
2022-09-03T23:34:09.130Z,97.10
2022-09-03T23:39:45.416Z,97.10
2022-09-03T23:42:19.376Z,97.20
2022-09-03T23:44:56.662Z,97.40
2022-09-03T23:47:33.742Z,97.50
2022-09-03T23:50:05.331Z,97.50
2022-09-03T23:52:40.573Z,97.60
2022-09-03T23:55:12.748Z,97.70
2022-09-03T23:57:42.209Z,97.70
